sensor_id;sensor_type;location;lat;lon;timestamp;pressure;altitude;pressure_sealevel;temperature;humidity
46922;BME280;44039;48.336;10.454;2022-09-03T00:01:53;95594.44;;;15.72;75.19
46922;BME280;44039;48.336;10.454;2022-09-03T00:16:45;95587.63;;;15.79;76.84
46922;BME280;44039;48.336;10.454;2022-09-03T00:19:44;95592.19;;;15.48;78.61
46922;BME280;44039;48.336;10.454;2022-09-03T00:22:36;95591.34;;;15.19;82.32
46922;BME280;44039;48.336;10.454;2022-09-03T00:25:44;95588.69;;;14.99;84.17
46922;BME280;44039;48.336;10.454;2022-09-03T00:28:41;95579.44;;;15.15;82.86
46922;BME280;44039;48.336;10.454;2022-09-03T00:31:38;95581.78;;;15.08;81.07
46922;BME280;44039;48.336;10.454;2022-09-03T00:34:31;95580.66;;;15.01;82.61
46922;BME280;44039;48.336;10.454;2022-09-03T00:37:20;95585.50;;;15.15;81.92
46922;BME280;44039;48.336;10.454;2022-09-03T00:40:32;95587.59;;;15.41;80.42
46922;BME280;44039;48.336;10.454;2022-09-03T00:46:48;95577.09;;;15.21;80.59
46922;BME280;44039;48.336;10.454;2022-09-03T00:56:08;95584.44;;;15.37;78.94
46922;BME280;44039;48.336;10.454;2022-09-03T01:02:14;95584.38;;;14.98;79.71
46922;BME280;44039;48.336;10.454;2022-09-03T01:18:09;95589.94;;;14.95;80.65
46922;BME280;44039;48.336;10.454;2022-09-03T01:21:24;95599.78;;;14.63;84.22
46922;BME280;44039;48.336;10.454;2022-09-03T01:30:32;95600.91;;;14.70;82.79
46922;BME280;44039;48.336;10.454;2022-09-03T01:33:37;95607.44;;;14.76;84.65
46922;BME280;44039;48.336;10.454;2022-09-03T01:39:33;95599.28;;;14.48;86.30
46922;BME280;44039;48.336;10.454;2022-09-03T01:42:31;95588.66;;;13.98;91.25
46922;BME280;44039;48.336;10.454;2022-09-03T01:45:35;95583.22;;;14.11;89.12
46922;BME280;44039;48.336;10.454;2022-09-03T01:51:32;95581.81;;;14.37;88.33
46922;BME280;44039;48.336;10.454;2022-09-03T02:00:23;95568.91;;;14.25;88.51
46922;BME280;44039;48.336;10.454;2022-09-03T02:03:12;95569.97;;;14.43;85.78
46922;BME280;44039;48.336;10.454;2022-09-03T02:06:00;95588.41;;;14.01;89.00
46922;BME280;44039;48.336;10.454;2022-09-03T02:08:49;95583.50;;;14.17;89.22
46922;BME280;44039;48.336;10.454;2022-09-03T02:11:36;95582.31;;;14.52;86.62
46922;BME280;44039;48.336;10.454;2022-09-03T02:14:24;95575.22;;;14.43;85.30
46922;BME280;44039;48.336;10.454;2022-09-03T02:17:13;95582.81;;;14.15;88.44
46922;BME280;44039;48.336;10.454;2022-09-03T02:20:04;95590.06;;;14.02;90.01
46922;BME280;44039;48.336;10.454;2022-09-03T02:22:52;95588.47;;;13.69;92.48
46922;BME280;44039;48.336;10.454;2022-09-03T02:25:52;95592.13;;;13.78;93.18
46922;BME280;44039;48.336;10.454;2022-09-03T02:28:41;95591.22;;;13.68;93.54
46922;BME280;44039;48.336;10.454;2022-09-03T02:31:28;95594.09;;;13.85;93.01
46922;BME280;44039;48.336;10.454;2022-09-03T02:34:15;95596.41;;;13.79;92.09
46922;BME280;44039;48.336;10.454;2022-09-03T02:37:11;95599.84;;;13.79;92.44
46922;BME280;44039;48.336;10.454;2022-09-03T02:39:59;95598.72;;;13.93;91.15
46922;BME280;44039;48.336;10.454;2022-09-03T02:42:47;95600.97;;;13.98;91.07
46922;BME280;44039;48.336;10.454;2022-09-03T02:45:36;95593.03;;;13.88;90.71
46922;BME280;44039;48.336;10.454;2022-09-03T02:48:27;95594.63;;;13.79;91.82
46922;BME280;44039;48.336;10.454;2022-09-03T02:51:14;95603.25;;;14.12;89.96
46922;BME280;44039;48.336;10.454;2022-09-03T02:54:02;95598.78;;;13.82;91.71
46922;BME280;44039;48.336;10.454;2022-09-03T02:56:49;95604.72;;;13.63;93.73
46922;BME280;44039;48.336;10.454;2022-09-03T02:59:36;95604.53;;;13.76;94.26
46922;BME280;44039;48.336;10.454;2022-09-03T03:02:23;95615.41;;;13.92;93.42
46922;BME280;44039;48.336;10.454;2022-09-03T03:05:17;95616.84;;;13.96;91.87
46922;BME280;44039;48.336;10.454;2022-09-03T03:08:07;95614.66;;;13.80;93.64
46922;BME280;44039;48.336;10.454;2022-09-03T03:10:56;95613.94;;;13.99;91.57
46922;BME280;44039;48.336;10.454;2022-09-03T03:13:45;95617.72;;;14.06;92.97
46922;BME280;44039;48.336;10.454;2022-09-03T03:16:32;95622.66;;;14.21;90.77
46922;BME280;44039;48.336;10.454;2022-09-03T03:19:19;95630.25;;;14.24;90.49
46922;BME280;44039;48.336;10.454;2022-09-03T03:22:06;95634.94;;;14.20;92.99
46922;BME280;44039;48.336;10.454;2022-09-03T03:24:53;95639.50;;;13.97;92.14
46922;BME280;44039;48.336;10.454;2022-09-03T03:27:42;95639.69;;;13.84;93.31
46922;BME280;44039;48.336;10.454;2022-09-03T03:30:31;95640.84;;;14.12;91.54
46922;BME280;44039;48.336;10.454;2022-09-03T03:33:18;95658.50;;;13.89;93.48
46922;BME280;44039;48.336;10.454;2022-09-03T03:36:13;95653.44;;;13.98;91.90
46922;BME280;44039;48.336;10.454;2022-09-03T03:39:01;95655.44;;;14.26;92.80
46922;BME280;44039;48.336;10.454;2022-09-03T03:41:48;95654.47;;;14.06;93.31
46922;BME280;44039;48.336;10.454;2022-09-03T03:44:38;95656.28;;;14.27;93.22
46922;BME280;44039;48.336;10.454;2022-09-03T03:47:25;95657.28;;;14.35;93.85
46922;BME280;44039;48.336;10.454;2022-09-03T03:50:12;95656.72;;;14.11;96.76
46922;BME280;44039;48.336;10.454;2022-09-03T03:52:59;95662.84;;;14.21;96.98
46922;BME280;44039;48.336;10.454;2022-09-03T03:55:55;95655.81;;;14.42;95.10
46922;BME280;44039;48.336;10.454;2022-09-03T03:58:42;95654.69;;;14.45;98.59
46922;BME280;44039;48.336;10.454;2022-09-03T04:01:29;95660.09;;;14.02;100.00
46922;BME280;44039;48.336;10.454;2022-09-03T04:04:17;95663.31;;;14.05;100.00
46922;BME280;44039;48.336;10.454;2022-09-03T04:07:04;95673.34;;;14.00;100.00
46922;BME280;44039;48.336;10.454;2022-09-03T04:09:51;95661.81;;;13.91;100.00
46922;BME280;44039;48.336;10.454;2022-09-03T04:12:38;95659.19;;;13.91;100.00
46922;BME280;44039;48.336;10.454;2022-09-03T04:15:25;95662.84;;;13.47;100.00
46922;BME280;44039;48.336;10.454;2022-09-03T04:18:12;95646.63;;;13.53;100.00
46922;BME280;44039;48.336;10.454;2022-09-03T04:21:01;95653.66;;;13.53;100.00
46922;BME280;44039;48.336;10.454;2022-09-03T04:23:53;95653.16;;;13.27;100.00
46922;BME280;44039;48.336;10.454;2022-09-03T04:26:40;95651.78;;;13.64;100.00
46922;BME280;44039;48.336;10.454;2022-09-03T04:29:27;95657.56;;;13.58;100.00
46922;BME280;44039;48.336;10.454;2022-09-03T04:32:16;95654.91;;;13.90;100.00
46922;BME280;44039;48.336;10.454;2022-09-03T04:35:23;95656.31;;;14.15;100.00
46922;BME280;44039;48.336;10.454;2022-09-03T04:38:11;95652.69;;;14.28;100.00
46922;BME280;44039;48.336;10.454;2022-09-03T04:40:58;95657.19;;;14.26;100.00
46922;BME280;44039;48.336;10.454;2022-09-03T04:43:46;95663.53;;;14.44;100.00
46922;BME280;44039;48.336;10.454;2022-09-03T04:46:37;95662.50;;;14.56;99.89
46922;BME280;44039;48.336;10.454;2022-09-03T04:49:25;95660.00;;;14.03;100.00
46922;BME280;44039;48.336;10.454;2022-09-03T04:52:12;95663.31;;;14.05;100.00
46922;BME280;44039;48.336;10.454;2022-09-03T04:54:59;95652.53;;;14.29;100.00
46922;BME280;44039;48.336;10.454;2022-09-03T04:57:47;95655.47;;;14.36;100.00
46922;BME280;44039;48.336;10.454;2022-09-03T05:00:37;95648.72;;;14.64;98.40
46922;BME280;44039;48.336;10.454;2022-09-03T05:03:24;95653.22;;;14.31;100.00
46922;BME280;44039;48.336;10.454;2022-09-03T05:06:11;95656.84;;;13.88;100.00
46922;BME280;44039;48.336;10.454;2022-09-03T05:09:00;95659.47;;;14.51;100.00
46922;BME280;44039;48.336;10.454;2022-09-03T05:11:47;95663.63;;;14.54;99.17
46922;BME280;44039;48.336;10.454;2022-09-03T05:14:34;95651.44;;;14.83;97.41
46922;BME280;44039;48.336;10.454;2022-09-03T05:17:21;95674.72;;;14.57;100.00
46922;BME280;44039;48.336;10.454;2022-09-03T05:20:08;95676.16;;;14.08;100.00
46922;BME280;44039;48.336;10.454;2022-09-03T05:22:56;95680.22;;;14.12;100.00
46922;BME280;44039;48.336;10.454;2022-09-03T05:25:54;95681.91;;;13.81;100.00
46922;BME280;44039;48.336;10.454;2022-09-03T05:28:44;95675.13;;;13.79;100.00
46922;BME280;44039;48.336;10.454;2022-09-03T05:31:33;95678.28;;;13.94;100.00
46922;BME280;44039;48.336;10.454;2022-09-03T05:34:20;95672.66;;;13.98;100.00
46922;BME280;44039;48.336;10.454;2022-09-03T05:37:08;95674.00;;;14.13;100.00
46922;BME280;44039;48.336;10.454;2022-09-03T05:39:55;95684.16;;;13.86;100.00
46922;BME280;44039;48.336;10.454;2022-09-03T05:42:42;95687.03;;;13.83;100.00
46922;BME280;44039;48.336;10.454;2022-09-03T05:45:29;95695.59;;;13.85;100.00
46922;BME280;44039;48.336;10.454;2022-09-03T05:48:18;95683.31;;;13.85;100.00
46922;BME280;44039;48.336;10.454;2022-09-03T05:51:13;95694.09;;;13.71;100.00
46922;BME280;44039;48.336;10.454;2022-09-03T05:54:02;95680.38;;;13.79;100.00
46922;BME280;44039;48.336;10.454;2022-09-03T05:56:49;95675.16;;;13.68;100.00
46922;BME280;44039;48.336;10.454;2022-09-03T05:59:36;95675.72;;;13.50;100.00
46922;BME280;44039;48.336;10.454;2022-09-03T06:02:23;95670.88;;;13.34;100.00
46922;BME280;44039;48.336;10.454;2022-09-03T06:05:10;95665.31;;;13.05;100.00
46922;BME280;44039;48.336;10.454;2022-09-03T06:07:58;95673.63;;;13.11;100.00
46922;BME280;44039;48.336;10.454;2022-09-03T06:10:45;95676.72;;;13.16;100.00
46922;BME280;44039;48.336;10.454;2022-09-03T06:13:33;95672.91;;;13.63;100.00
46922;BME280;44039;48.336;10.454;2022-09-03T06:16:21;95673.66;;;13.86;100.00
46922;BME280;44039;48.336;10.454;2022-09-03T06:19:17;95671.03;;;13.54;100.00
46922;BME280;44039;48.336;10.454;2022-09-03T06:22:04;95682.34;;;13.86;100.00
46922;BME280;44039;48.336;10.454;2022-09-03T06:24:51;95675.38;;;14.17;100.00
46922;BME280;44039;48.336;10.454;2022-09-03T06:27:38;95688.06;;;14.33;100.00
46922;BME280;44039;48.336;10.454;2022-09-03T06:30:25;95700.44;;;14.22;100.00
46922;BME280;44039;48.336;10.454;2022-09-03T06:33:12;95708.81;;;14.15;100.00
46922;BME280;44039;48.336;10.454;2022-09-03T06:36:00;95711.59;;;14.35;100.00
46922;BME280;44039;48.336;10.454;2022-09-03T06:38:55;95718.66;;;14.02;100.00
46922;BME280;44039;48.336;10.454;2022-09-03T06:41:42;95721.25;;;14.13;100.00
46922;BME280;44039;48.336;10.454;2022-09-03T06:44:30;95725.66;;;14.13;100.00
46922;BME280;44039;48.336;10.454;2022-09-03T06:47:17;95724.13;;;14.10;100.00
46922;BME280;44039;48.336;10.454;2022-09-03T06:50:04;95718.75;;;14.74;100.00
46922;BME280;44039;48.336;10.454;2022-09-03T06:52:52;95711.66;;;14.96;100.00
46922;BME280;44039;48.336;10.454;2022-09-03T06:55:40;95710.19;;;15.13;100.00
46922;BME280;44039;48.336;10.454;2022-09-03T06:58:34;95717.16;;;15.23;100.00
46922;BME280;44039;48.336;10.454;2022-09-03T07:01:28;95709.16;;;15.35;100.00
46922;BME280;44039;48.336;10.454;2022-09-03T07:04:18;95698.44;;;15.76;100.00
46922;BME280;44039;48.336;10.454;2022-09-03T07:07:06;95703.56;;;15.68;100.00
46922;BME280;44039;48.336;10.454;2022-09-03T07:09:58;95700.97;;;15.97;100.00
46922;BME280;44039;48.336;10.454;2022-09-03T07:12:46;95703.31;;;16.20;100.00
46922;BME280;44039;48.336;10.454;2022-09-03T07:15:33;95696.81;;;16.04;100.00
46922;BME280;44039;48.336;10.454;2022-09-03T07:18:20;95692.72;;;16.39;100.00
46922;BME280;44039;48.336;10.454;2022-09-03T07:21:10;95688.97;;;16.51;100.00
46922;BME280;44039;48.336;10.454;2022-09-03T07:23:59;95683.41;;;17.01;100.00
46922;BME280;44039;48.336;10.454;2022-09-03T07:26:46;95681.13;;;16.88;100.00
46922;BME280;44039;48.336;10.454;2022-09-03T07:29:34;95689.72;;;16.34;100.00
46922;BME280;44039;48.336;10.454;2022-09-03T07:32:21;95689.00;;;16.32;100.00
46922;BME280;44039;48.336;10.454;2022-09-03T07:35:08;95682.53;;;17.83;100.00
46922;BME280;44039;48.336;10.454;2022-09-03T07:37:55;95663.81;;;19.58;100.00
46922;BME280;44039;48.336;10.454;2022-09-03T07:40:42;95678.91;;;18.46;100.00
46922;BME280;44039;48.336;10.454;2022-09-03T07:43:34;95683.28;;;18.73;100.00
46922;BME280;44039;48.336;10.454;2022-09-03T07:46:24;95688.97;;;18.42;100.00
46922;BME280;44039;48.336;10.454;2022-09-03T07:49:12;95694.22;;;17.35;100.00
46922;BME280;44039;48.336;10.454;2022-09-03T07:51:59;95698.59;;;16.89;100.00
46922;BME280;44039;48.336;10.454;2022-09-03T07:54:46;95697.38;;;16.84;100.00
46922;BME280;44039;48.336;10.454;2022-09-03T07:57:34;95699.56;;;17.26;100.00
46922;BME280;44039;48.336;10.454;2022-09-03T08:00:21;95704.50;;;17.11;100.00
46922;BME280;44039;48.336;10.454;2022-09-03T08:03:08;95707.66;;;16.77;100.00
46922;BME280;44039;48.336;10.454;2022-09-03T08:06:04;95703.72;;;16.91;100.00
46922;BME280;44039;48.336;10.454;2022-09-03T08:09:10;95704.56;;;16.91;100.00
46922;BME280;44039;48.336;10.454;2022-09-03T08:11:59;95704.47;;;17.38;100.00
46922;BME280;44039;48.336;10.454;2022-09-03T08:14:46;95699.44;;;17.45;100.00
46922;BME280;44039;48.336;10.454;2022-09-03T08:17:34;95692.75;;;18.83;100.00
46922;BME280;44039;48.336;10.454;2022-09-03T08:20:22;95683.38;;;19.74;100.00
46922;BME280;44039;48.336;10.454;2022-09-03T08:23:09;95682.59;;;20.06;100.00
46922;BME280;44039;48.336;10.454;2022-09-03T08:25:59;95675.97;;;20.67;100.00
46922;BME280;44039;48.336;10.454;2022-09-03T08:28:47;95667.34;;;21.28;100.00
46922;BME280;44039;48.336;10.454;2022-09-03T08:31:35;95673.16;;;20.27;100.00
46922;BME280;44039;48.336;10.454;2022-09-03T08:34:23;95699.47;;;18.78;100.00
46922;BME280;44039;48.336;10.454;2022-09-03T08:37:11;95687.91;;;19.05;100.00
46922;BME280;44039;48.336;10.454;2022-09-03T08:39:59;95679.25;;;19.71;100.00
46922;BME280;44039;48.336;10.454;2022-09-03T08:45:52;95695.69;;;19.06;100.00
46922;BME280;44039;48.336;10.454;2022-09-03T08:48:39;95691.47;;;18.87;100.00
46922;BME280;44039;48.336;10.454;2022-09-03T08:51:26;95688.06;;;19.54;100.00
46922;BME280;44039;48.336;10.454;2022-09-03T08:54:14;95699.63;;;19.02;100.00
46922;BME280;44039;48.336;10.454;2022-09-03T08:57:02;95682.22;;;19.26;100.00
46922;BME280;44039;48.336;10.454;2022-09-03T08:59:53;95682.75;;;19.88;100.00
46922;BME280;44039;48.336;10.454;2022-09-03T09:05:48;95675.47;;;20.14;100.00
46922;BME280;44039;48.336;10.454;2022-09-03T09:08:47;95669.06;;;19.50;99.72
46922;BME280;44039;48.336;10.454;2022-09-03T09:12:13;95679.59;;;19.34;100.00
46922;BME280;44039;48.336;10.454;2022-09-03T09:21:31;95698.94;;;19.00;100.00
46922;BME280;44039;48.336;10.454;2022-09-03T09:24:24;95714.63;;;18.94;100.00
46922;BME280;44039;48.336;10.454;2022-09-03T09:27:16;95713.03;;;18.75;100.00
46922;BME280;44039;48.336;10.454;2022-09-03T09:30:04;95712.66;;;18.70;100.00
46922;BME280;44039;48.336;10.454;2022-09-03T09:32:51;95707.16;;;19.23;100.00
46922;BME280;44039;48.336;10.454;2022-09-03T09:35:39;95707.00;;;18.91;100.00
46922;BME280;44039;48.336;10.454;2022-09-03T09:38:30;95707.00;;;18.91;100.00
46922;BME280;44039;48.336;10.454;2022-09-03T09:41:19;95706.47;;;19.13;100.00
46922;BME280;44039;48.336;10.454;2022-09-03T09:44:18;95699.97;;;19.41;100.00
46922;BME280;44039;48.336;10.454;2022-09-03T09:47:26;95698.19;;;19.50;100.00
46922;BME280;44039;48.336;10.454;2022-09-03T09:50:17;95695.75;;;19.23;100.00
46922;BME280;44039;48.336;10.454;2022-09-03T09:53:12;95712.53;;;19.05;100.00
46922;BME280;44039;48.336;10.454;2022-09-03T09:56:04;95712.81;;;18.68;100.00
46922;BME280;44039;48.336;10.454;2022-09-03T09:59:04;95710.47;;;18.65;100.00
46922;BME280;44039;48.336;10.454;2022-09-03T10:02:12;95706.63;;;18.59;100.00
46922;BME280;44039;48.336;10.454;2022-09-03T10:05:21;95705.53;;;18.70;100.00
46922;BME280;44039;48.336;10.454;2022-09-03T10:08:19;95700.38;;;18.86;100.00
46922;BME280;44039;48.336;10.454;2022-09-03T10:11:07;95690.78;;;19.62;100.00
46922;BME280;44039;48.336;10.454;2022-09-03T10:13:55;95688.69;;;19.90;99.50
46922;BME280;44039;48.336;10.454;2022-09-03T10:16:44;95682.63;;;20.63;93.58
46922;BME280;44039;48.336;10.454;2022-09-03T10:19:45;95672.09;;;22.26;77.54
46922;BME280;44039;48.336;10.454;2022-09-03T10:22:59;95636.88;;;25.68;61.77
46922;BME280;44039;48.336;10.454;2022-09-03T10:26:07;95622.28;;;27.87;52.52
46922;BME280;44039;48.336;10.454;2022-09-03T10:28:58;95648.78;;;24.12;68.72
46922;BME280;44039;48.336;10.454;2022-09-03T10:44:47;95669.09;;;22.82;77.79
46922;BME280;44039;48.336;10.454;2022-09-03T10:48:13;95679.91;;;21.74;81.45
46922;BME280;44039;48.336;10.454;2022-09-03T10:51:05;95682.34;;;21.52;88.38
46922;BME280;44039;48.336;10.454;2022-09-03T10:54:21;95668.16;;;22.74;82.87
46922;BME280;44039;48.336;10.454;2022-09-03T11:00:22;95659.47;;;22.43;78.39
46922;BME280;44039;48.336;10.454;2022-09-03T11:06:14;95638.25;;;24.04;66.98
46922;BME280;44039;48.336;10.454;2022-09-03T11:09:13;95631.84;;;25.32;64.83
46922;BME280;44039;48.336;10.454;2022-09-03T11:12:07;95628.75;;;25.89;64.59
46922;BME280;44039;48.336;10.454;2022-09-03T11:15:01;95612.28;;;28.08;50.10
46922;BME280;44039;48.336;10.454;2022-09-03T11:18:02;95605.84;;;28.40;48.16
46922;BME280;44039;48.336;10.454;2022-09-03T11:20:53;95619.44;;;27.37;49.55
46922;BME280;44039;48.336;10.454;2022-09-03T11:23:47;95616.22;;;27.67;52.00
46922;BME280;44039;48.336;10.454;2022-09-03T11:26:47;95606.97;;;27.94;46.22
46922;BME280;44039;48.336;10.454;2022-09-03T11:44:18;95567.69;;;29.85;43.42
46922;BME280;44039;48.336;10.454;2022-09-03T11:47:15;95559.88;;;29.65;44.67
46922;BME280;44039;48.336;10.454;2022-09-03T11:50:32;95569.22;;;27.51;48.94
46922;BME280;44039;48.336;10.454;2022-09-03T12:02:16;95553.75;;;30.30;37.02
46922;BME280;44039;48.336;10.454;2022-09-03T12:05:28;95570.53;;;28.12;45.99
46922;BME280;44039;48.336;10.454;2022-09-03T12:14:31;95623.47;;;23.80;57.01
46922;BME280;44039;48.336;10.454;2022-09-03T12:17:31;95632.19;;;23.23;60.42
46922;BME280;44039;48.336;10.454;2022-09-03T12:20:26;95643.19;;;22.61;65.64
46922;BME280;44039;48.336;10.454;2022-09-03T12:26:19;95626.38;;;22.45;66.67
46922;BME280;44039;48.336;10.454;2022-09-03T12:29:22;95636.19;;;22.45;71.75
46922;BME280;44039;48.336;10.454;2022-09-03T12:32:13;95653.28;;;22.05;71.33
46922;BME280;44039;48.336;10.454;2022-09-03T12:35:23;95658.16;;;22.39;71.10
46922;BME280;44039;48.336;10.454;2022-09-03T12:38:30;95660.94;;;21.77;74.40
46922;BME280;44039;48.336;10.454;2022-09-03T12:41:35;95717.91;;;20.71;83.80
46922;BME280;44039;48.336;10.454;2022-09-03T12:44:25;95742.41;;;17.37;100.00
46922;BME280;44039;48.336;10.454;2022-09-03T12:47:18;95758.31;;;15.84;100.00
46922;BME280;44039;48.336;10.454;2022-09-03T12:50:24;95756.06;;;15.70;100.00
46922;BME280;44039;48.336;10.454;2022-09-03T12:53:21;95744.31;;;15.93;100.00
46922;BME280;44039;48.336;10.454;2022-09-03T12:56:10;95742.22;;;16.74;100.00
46922;BME280;44039;48.336;10.454;2022-09-03T12:59:06;95747.66;;;17.92;100.00
46922;BME280;44039;48.336;10.454;2022-09-03T13:01:59;95730.44;;;19.96;100.00
46922;BME280;44039;48.336;10.454;2022-09-03T13:04:49;95728.06;;;19.34;100.00
46922;BME280;44039;48.336;10.454;2022-09-03T13:07:37;95704.53;;;19.65;100.00
46922;BME280;44039;48.336;10.454;2022-09-03T13:10:33;95726.31;;;20.10;100.00
46922;BME280;44039;48.336;10.454;2022-09-03T13:13:32;95719.66;;;19.47;98.80
46922;BME280;44039;48.336;10.454;2022-09-03T13:19:54;95713.00;;;21.07;91.43
46922;BME280;44039;48.336;10.454;2022-09-03T13:23:27;95701.28;;;22.72;82.57
46922;BME280;44039;48.336;10.454;2022-09-03T13:26:41;95700.19;;;21.98;87.31
46922;BME280;44039;48.336;10.454;2022-09-03T13:32:40;95727.28;;;20.00;100.00
46922;BME280;44039;48.336;10.454;2022-09-03T13:36:02;95718.28;;;19.27;100.00
46922;BME280;44039;48.336;10.454;2022-09-03T13:39:01;95720.81;;;19.02;100.00
46922;BME280;44039;48.336;10.454;2022-09-03T13:42:16;95714.53;;;18.77;100.00
46922;BME280;44039;48.336;10.454;2022-09-03T13:51:48;95719.31;;;19.34;100.00
46922;BME280;44039;48.336;10.454;2022-09-03T13:54:42;95713.53;;;19.89;100.00
46922;BME280;44039;48.336;10.454;2022-09-03T14:00:39;95695.53;;;20.49;99.86
46922;BME280;44039;48.336;10.454;2022-09-03T14:06:45;95682.00;;;22.55;84.58
46922;BME280;44039;48.336;10.454;2022-09-03T14:09:50;95670.06;;;23.03;82.70
46922;BME280;44039;48.336;10.454;2022-09-03T14:12:48;95671.00;;;22.35;81.43
46922;BME280;44039;48.336;10.454;2022-09-03T14:15:47;95663.50;;;22.39;77.93
46922;BME280;44039;48.336;10.454;2022-09-03T14:21:28;95679.19;;;21.09;90.29
46922;BME280;44039;48.336;10.454;2022-09-03T14:24:33;95699.63;;;20.76;99.74
46922;BME280;44039;48.336;10.454;2022-09-03T14:27:30;95695.97;;;19.80;100.00
46922;BME280;44039;48.336;10.454;2022-09-03T14:33:13;95697.91;;;18.93;100.00
46922;BME280;44039;48.336;10.454;2022-09-03T14:36:20;95703.94;;;18.77;100.00
46922;BME280;44039;48.336;10.454;2022-09-03T14:51:17;95746.06;;;17.99;100.00
46922;BME280;44039;48.336;10.454;2022-09-03T14:57:33;95714.16;;;18.54;100.00
46922;BME280;44039;48.336;10.454;2022-09-03T15:10:45;95707.88;;;22.76;100.00
46922;BME280;44039;48.336;10.454;2022-09-03T15:13:46;95692.97;;;23.49;91.68
46922;BME280;44039;48.336;10.454;2022-09-03T15:26:45;95675.41;;;22.66;92.14
46922;BME280;44039;48.336;10.454;2022-09-03T15:42:09;95675.41;;;22.66;87.97
46922;BME280;44039;48.336;10.454;2022-09-03T15:45:27;95676.50;;;22.71;87.96
46922;BME280;44039;48.336;10.454;2022-09-03T15:48:20;95673.44;;;23.12;84.51
46922;BME280;44039;48.336;10.454;2022-09-03T15:51:16;95669.88;;;22.67;83.97
46922;BME280;44039;48.336;10.454;2022-09-03T15:54:18;95677.69;;;22.31;82.30
46922;BME280;44039;48.336;10.454;2022-09-03T16:00:15;95679.94;;;20.71;92.64
46922;BME280;44039;48.336;10.454;2022-09-03T16:03:12;95687.72;;;20.07;100.00
46922;BME280;44039;48.336;10.454;2022-09-03T16:09:35;95702.88;;;19.64;100.00
46922;BME280;44039;48.336;10.454;2022-09-03T16:12:35;95705.72;;;19.71;100.00
46922;BME280;44039;48.336;10.454;2022-09-03T16:15:26;95719.19;;;18.83;100.00
46922;BME280;44039;48.336;10.454;2022-09-03T16:18:27;95706.78;;;18.84;100.00
46922;BME280;44039;48.336;10.454;2022-09-03T16:21:45;95712.56;;;18.61;100.00
46922;BME280;44039;48.336;10.454;2022-09-03T16:24:40;95710.69;;;18.72;100.00
46922;BME280;44039;48.336;10.454;2022-09-03T16:36:23;95710.94;;;19.12;100.00
46922;BME280;44039;48.336;10.454;2022-09-03T16:39:15;95716.44;;;18.93;100.00
46922;BME280;44039;48.336;10.454;2022-09-03T16:45:25;95710.94;;;19.12;100.00
46922;BME280;44039;48.336;10.454;2022-09-03T16:54:45;95710.47;;;19.17;100.00
46922;BME280;44039;48.336;10.454;2022-09-03T16:58:07;95716.34;;;19.03;100.00
46922;BME280;44039;48.336;10.454;2022-09-03T17:10:36;95706.25;;;19.40;100.00
46922;BME280;44039;48.336;10.454;2022-09-03T17:19:38;95717.94;;;18.70;100.00
46922;BME280;44039;48.336;10.454;2022-09-03T17:22:44;95715.75;;;18.47;100.00
46922;BME280;44039;48.336;10.454;2022-09-03T17:25:38;95719.41;;;18.46;100.00
46922;BME280;44039;48.336;10.454;2022-09-03T17:35:16;95723.00;;;18.81;100.00
46922;BME280;44039;48.336;10.454;2022-09-03T17:38:25;95726.63;;;18.80;100.00
46922;BME280;44039;48.336;10.454;2022-09-03T17:45:00;95737.63;;;18.49;100.00
46922;BME280;44039;48.336;10.454;2022-09-03T17:54:21;95743.88;;;17.77;100.00
46922;BME280;44039;48.336;10.454;2022-09-03T17:57:24;95758.63;;;17.42;100.00
46922;BME280;44039;48.336;10.454;2022-09-03T18:00:28;95761.22;;;17.15;100.00
46922;BME280;44039;48.336;10.454;2022-09-03T18:03:23;95763.81;;;17.34;100.00
46922;BME280;44039;48.336;10.454;2022-09-03T18:06:25;95772.09;;;17.39;100.00
46922;BME280;44039;48.336;10.454;2022-09-03T18:09:31;95774.47;;;17.33;100.00
46922;BME280;44039;48.336;10.454;2022-09-03T18:12:37;95772.09;;;17.12;100.00
46922;BME280;44039;48.336;10.454;2022-09-03T18:15:31;95784.91;;;16.68;100.00
46922;BME280;44039;48.336;10.454;2022-09-03T18:18:28;95783.97;;;16.59;100.00
46922;BME280;44039;48.336;10.454;2022-09-03T18:21:21;95784.38;;;16.45;100.00
46922;BME280;44039;48.336;10.454;2022-09-03T18:24:34;95788.97;;;16.04;100.00
46922;BME280;44039;48.336;10.454;2022-09-03T18:27:47;95795.75;;;16.17;100.00
46922;BME280;44039;48.336;10.454;2022-09-03T18:30:55;95792.03;;;16.19;100.00
46922;BME280;44039;48.336;10.454;2022-09-03T18:34:02;95790.78;;;16.43;100.00
46922;BME280;44039;48.336;10.454;2022-09-03T18:37:08;95797.53;;;16.84;100.00
46922;BME280;44039;48.336;10.454;2022-09-03T18:40:20;95795.00;;;17.11;100.00
46922;BME280;44039;48.336;10.454;2022-09-03T18:43:34;95799.66;;;17.17;100.00
46922;BME280;44039;48.336;10.454;2022-09-03T18:50:25;95805.44;;;16.93;100.00
46922;BME280;44039;48.336;10.454;2022-09-03T18:53:47;95809.75;;;16.65;100.00
46922;BME280;44039;48.336;10.454;2022-09-03T18:56:57;95806.84;;;16.39;100.00
46922;BME280;44039;48.336;10.454;2022-09-03T19:00:11;95811.56;;;16.36;100.00
46922;BME280;44039;48.336;10.454;2022-09-03T19:03:28;95802.41;;;16.59;100.00
46922;BME280;44039;48.336;10.454;2022-09-03T19:07:01;95803.38;;;16.29;100.00
46922;BME280;44039;48.336;10.454;2022-09-03T19:10:15;95817.38;;;15.61;100.00
46922;BME280;44039;48.336;10.454;2022-09-03T19:13:33;95816.69;;;15.58;100.00
46922;BME280;44039;48.336;10.454;2022-09-03T19:17:24;95828.66;;;15.11;100.00
46922;BME280;44039;48.336;10.454;2022-09-03T19:20:34;95826.72;;;15.74;100.00